Time;durP1;ratioP1;P1;durP2;ratioP2;P2;SDS_P1;SDS_P2;PMS_P1;PMS_P2;Temp;Humidity;BMP_temperature;BMP_pressure;BME280_temperature;BME280_humidity;BME280_pressure;Samples;Min_cycle;Max_cycle;Signal;HPM_P1;HPM_P2
2022/07/30 00:01:12;;;;;;;2.60;2.33;;;;;;;19.70;86.81;100286.47;5026551;28;20457;-49
2022/07/30 00:03:39;;;;;;;1.53;1.43;;;;;;;19.85;84.66;100285.44;5029395;28;20464;-48
2022/07/30 00:06:05;;;;;;;7.73;3.30;;;;;;;19.82;84.56;100277.56;5019722;28;20452;-49
2022/07/30 00:08:32;;;;;;;31.57;2.20;;;;;;;19.72;85.17;100268.34;5020879;28;20519;-49
2022/07/30 00:10:59;;;;;;;0.93;0.83;;;;;;;19.74;85.27;100270.00;5026248;28;20460;-48
2022/07/30 00:13:25;;;;;;;2.03;1.93;;;;;;;19.68;84.61;100259.59;5026071;28;20448;-49
2022/07/30 00:15:52;;;;;;;6.63;1.90;;;;;;;19.66;84.75;100252.59;5018580;28;20883;-48
2022/07/30 00:18:18;;;;;;;3.33;1.53;;;;;;;19.72;84.35;100257.56;5032530;28;20488;-50
2022/07/30 00:20:47;;;;;;;1.50;1.33;;;;;;;19.56;84.34;100257.72;5019123;28;20455;-50
2022/07/30 00:23:14;;;;;;;2.80;2.60;;;;;;;19.61;85.76;100247.50;5018738;28;20452;-49
2022/07/30 00:25:40;;;;;;;3.10;1.90;;;;;;;19.51;86.07;100241.81;5026122;28;20475;-49
2022/07/30 00:28:07;;;;;;;2.23;2.03;;;;;;;19.54;85.51;100243.44;5026003;28;20956;-49
2022/07/30 00:30:34;;;;;;;7.23;2.13;;;;;;;19.30;86.67;100243.22;5022861;28;20523;-50
2022/07/30 00:33:01;;;;;;;1.20;1.10;;;;;;;19.41;86.63;100245.22;5022301;28;20904;-50
2022/07/30 00:35:27;;;;;;;2.33;2.23;;;;;;;19.34;87.32;100244.78;5019204;28;20486;-49
2022/07/30 00:37:54;;;;;;;1.80;1.70;;;;;;;19.39;87.63;100248.03;5032362;28;20483;-52
2022/07/30 00:40:20;;;;;;;8.10;3.03;;;;;;;19.05;88.09;100243.06;5018796;28;20459;-50
2022/07/30 00:42:47;;;;;;;1.63;1.50;;;;;;;18.87;88.61;100246.00;5022954;28;20471;-50
2022/07/30 00:45:15;;;;;;;2.60;2.33;;;;;;;19.00;87.34;100240.69;5025874;28;20476;-49
2022/07/30 00:47:42;;;;;;;1.50;1.37;;;;;;;18.82;87.73;100241.88;5029057;28;20473;-50
2022/07/30 00:50:11;;;;;;;2.27;1.83;;;;;;;18.79;87.56;100240.25;5019064;28;20823;-50
2022/07/30 00:52:38;;;;;;;2.20;1.53;;;;;;;18.65;87.55;100245.63;5021065;28;20452;-49
2022/07/30 00:55:07;;;;;;;2.73;2.53;;;;;;;18.46;88.99;100255.75;5025458;28;20909;-49
2022/07/30 00:57:34;;;;;;;5.80;2.10;;;;;;;18.56;87.90;100257.81;5024082;28;20444;-50
2022/07/30 01:00:00;;;;;;;2.13;2.03;;;;;;;18.75;87.77;100260.22;5018396;28;20456;-50
2022/07/30 01:02:27;;;;;;;1.60;1.50;;;;;;;18.35;89.84;100253.72;5022379;28;20899;-50
2022/07/30 01:04:54;;;;;;;2.97;2.00;;;;;;;18.27;89.79;100256.91;5023155;28;20468;-50
2022/07/30 01:07:20;;;;;;;5.93;2.23;;;;;;;18.30;89.96;100251.34;5019947;28;20467;-50
2022/07/30 01:09:52;;;;;;;2.90;2.70;;;;;;;18.22;90.06;100253.59;5025529;28;20483;-51
2022/07/30 01:12:23;;;;;;;3.20;2.90;;;;;;;18.29;90.84;100254.13;5017580;28;20958;-50
2022/07/30 01:14:51;;;;;;;7.67;4.73;;;;;;;18.15;90.62;100263.03;5019624;28;20471;-49
2022/07/30 01:17:17;;;;;;;1.90;1.80;;;;;;;18.22;90.79;100260.81;5030505;28;20466;-50
2022/07/30 01:19:51;;;;;;;3.83;2.97;;;;;;;18.19;89.46;100275.31;5024348;28;20488;-52
2022/07/30 01:22:29;;;;;;;1.80;1.70;;;;;;;18.06;90.01;100264.44;5025544;28;20458;-49
2022/07/30 01:25:07;;;;;;;3.50;1.83;;;;;;;17.83;91.65;100261.41;5022662;28;20471;-49
2022/07/30 01:27:40;;;;;;;3.03;1.63;;;;;;;17.74;91.38;100254.72;5018339;28;20455;-49
2022/07/30 01:30:08;;;;;;;1.70;1.60;;;;;;;17.84;91.53;100260.44;5035525;28;20631;-52
2022/07/30 01:32:39;;;;;;;4.90;2.63;;;;;;;17.82;91.54;100260.53;5034711;28;20478;-50
2022/07/30 01:35:07;;;;;;;4.30;3.03;;;;;;;17.79;91.00;100255.31;5021190;28;20474;-50
2022/07/30 01:37:35;;;;;;;3.77;3.20;;;;;;;17.66;90.86;100271.25;5029264;28;20470;-50
2022/07/30 01:40:03;;;;;;;2.97;2.77;;;;;;;17.71;91.78;100271.03;5022046;28;20455;-50
2022/07/30 01:42:32;;;;;;;2.47;2.23;;;;;;;17.71;92.01;100260.28;5025366;28;20483;-50
2022/07/30 01:44:59;;;;;;;2.60;2.10;;;;;;;17.73;91.52;100255.69;5013635;28;20481;-50
2022/07/30 01:47:27;;;;;;;1.33;1.23;;;;;;;17.65;92.31;100265.97;5027659;28;20459;-54
2022/07/30 01:49:54;;;;;;;3.63;2.10;;;;;;;17.73;91.77;100266.44;5020961;28;20472;-53
2022/07/30 01:52:22;;;;;;;1.83;1.73;;;;;;;17.68;91.68;100263.09;5017569;28;20456;-54
2022/07/30 01:54:51;;;;;;;2.70;2.50;;;;;;;17.58;91.86;100257.41;5019650;28;20491;-54
2022/07/30 01:57:19;;;;;;;1.70;1.60;;;;;;;17.73;92.29;100272.69;5025347;28;20460;-53
2022/07/30 01:59:49;;;;;;;3.50;1.63;;;;;;;17.75;91.89;100270.78;5027357;28;20494;-54
2022/07/30 02:02:15;;;;;;;16.77;2.70;;;;;;;17.75;91.93;100275.28;5021986;28;20944;-53
2022/07/30 02:04:43;;;;;;;1.60;1.50;;;;;;;17.72;92.39;100281.72;5022559;28;20472;-53
2022/07/30 02:07:33;;;;;;;3.43;2.20;;;;;;;17.48;92.70;100283.09;5028277;28;20456;-53
2022/07/30 02:10:25;;;;;;;1.60;1.50;;;;;;;17.39;93.41;100279.09;4991816;28;20472;-54
2022/07/30 02:12:56;;;;;;;8.73;1.97;;;;;;;17.27;93.26;100279.81;5028703;28;20506;-53
2022/07/30 02:15:31;;;;;;;3.57;1.23;;;;;;;17.48;93.36;100275.03;5032132;28;20486;-54
2022/07/30 02:18:16;;;;;;;2.13;2.03;;;;;;;17.43;93.96;100280.66;5033608;28;20442;-54
2022/07/30 02:20:49;;;;;;;4.00;2.50;;;;;;;17.31;94.33;100275.13;5025950;28;20466;-53
2022/07/30 02:23:18;;;;;;;2.07;1.80;;;;;;;17.42;94.22;100278.06;5021611;28;20968;-54
2022/07/30 02:25:49;;;;;;;1.70;1.60;;;;;;;17.43;94.05;100280.66;5030093;28;20838;-54
2022/07/30 02:28:18;;;;;;;3.43;1.77;;;;;;;17.45;93.56;100278.75;5021738;28;20439;-54
2022/07/30 02:30:57;;;;;;;1.07;0.87;;;;;;;17.50;94.25;100285.69;5034571;28;20448;-53
2022/07/30 02:33:32;;;;;;;2.43;2.07;;;;;;;17.39;93.49;100279.09;5026126;28;20455;-53
2022/07/30 02:36:00;;;;;;;4.17;2.80;;;;;;;17.35;93.31;100282.91;5028855;28;20475;-54
2022/07/30 02:38:27;;;;;;;2.50;2.40;;;;;;;17.11;94.12;100281.59;5034613;28;20487;-53
2022/07/30 02:40:57;;;;;;;4.40;3.27;;;;;;;17.01;94.36;100281.25;5021543;28;20463;-54
2022/07/30 02:43:25;;;;;;;3.03;2.83;;;;;;;16.93;94.86;100288.00;5025839;28;20800;-53
2022/07/30 02:45:52;;;;;;;3.23;1.83;;;;;;;17.02;95.30;100282.13;5021671;28;20477;-54
2022/07/30 02:48:21;;;;;;;7.63;2.90;;;;;;;16.84;96.03;100286.66;5034760;28;20450;-54
2022/07/30 02:51:02;;;;;;;2.67;1.97;;;;;;;16.94;95.90;100287.03;5014865;28;20456;-54
2022/07/30 02:53:30;;;;;;;3.03;2.73;;;;;;;16.97;95.55;100294.91;5028089;28;20459;-54
2022/07/30 02:55:58;;;;;;;2.83;2.73;;;;;;;16.80;96.49;100294.03;5015735;28;20483;-54
2022/07/30 02:58:26;;;;;;;8.93;3.90;;;;;;;16.93;96.11;100296.06;5027500;28;21019;-52
2022/07/30 03:00:54;;;;;;;3.93;2.97;;;;;;;16.98;96.69;100284.09;5016615;28;20453;-53
2022/07/30 03:03:27;;;;;;;4.00;2.13;;;;;;;16.90;95.63;100296.22;5027452;28;20574;-53
2022/07/30 03:05:55;;;;;;;3.33;3.13;;;;;;;17.04;95.74;100293.66;5023337;28;20479;-53
2022/07/30 03:08:23;;;;;;;3.03;2.23;;;;;;;16.92;96.41;100297.00;5021120;28;20575;-53
2022/07/30 03:10:52;;;;;;;3.60;3.30;;;;;;;16.66;96.17;100291.19;5023066;28;20459;-53
2022/07/30 03:13:20;;;;;;;3.03;2.83;;;;;;;16.88;96.13;100289.13;5028426;28;20522;-54
2022/07/30 03:15:49;;;;;;;4.10;3.70;;;;;;;16.47;96.60;100290.44;5025875;28;20471;-53
2022/07/30 03:18:19;;;;;;;3.70;3.50;;;;;;;16.56;97.55;100288.13;5029379;28;20457;-52
2022/07/30 03:20:49;;;;;;;9.80;4.60;;;;;;;16.48;97.36;100287.69;5025205;28;20458;-53
2022/07/30 03:23:18;;;;;;;4.30;3.87;;;;;;;16.59;98.14;100287.13;5020669;28;20944;-53
2022/07/30 03:25:55;;;;;;;4.20;3.80;;;;;;;16.50;97.46;100293.84;5026870;28;20495;-53
2022/07/30 03:28:23;;;;;;;3.70;3.40;;;;;;;16.65;97.17;100296.66;5021134;28;20819;-53
2022/07/30 03:30:51;;;;;;;3.87;3.43;;;;;;;16.45;97.51;100311.13;5027977;28;20933;-53
2022/07/30 03:33:19;;;;;;;2.60;2.40;;;;;;;16.33;97.62;100307.28;5026012;28;20972;-54
2022/07/30 03:35:48;;;;;;;3.77;3.43;;;;;;;16.50;98.06;100303.69;5026627;28;20530;-53
2022/07/30 03:38:16;;;;;;;6.13;3.93;;;;;;;16.29;97.00;100311.03;5033370;28;20538;-53
2022/07/30 03:40:44;;;;;;;2.90;2.70;;;;;;;16.28;97.57;100301.25;5020340;28;20824;-53
2022/07/30 03:43:13;;;;;;;3.60;3.40;;;;;;;16.19;98.57;100304.44;5024180;28;20856;-53
2022/07/30 03:45:59;;;;;;;3.30;3.00;;;;;;;16.16;98.75;100305.44;5031526;28;20995;-53
2022/07/30 03:48:26;;;;;;;6.10;3.40;;;;;;;16.25;99.24;100309.47;5021084;28;20864;-53
2022/07/30 03:50:54;;;;;;;3.50;3.30;;;;;;;16.14;99.21;100314.50;5026647;28;20823;-52
2022/07/30 03:53:23;;;;;;;3.30;2.83;;;;;;;16.16;99.54;100307.25;5026119;28;20454;-53
2022/07/30 03:55:52;;;;;;;4.53;2.93;;;;;;;16.24;98.90;100311.28;5030609;28;20529;-53
2022/07/30 03:58:18;;;;;;;3.10;2.40;;;;;;;16.16;99.03;100317.97;5032572;28;20455;-53
2022/07/30 04:00:49;;;;;;;3.27;3.07;;;;;;;16.10;98.92;100310.25;5020226;28;20451;-52
2022/07/30 04:03:26;;;;;;;2.80;2.60;;;;;;;16.40;98.54;100318.53;5019885;28;20444;-53
2022/07/30 04:05:53;;;;;;;7.47;2.43;;;;;;;16.27;98.54;100324.53;5030494;28;20829;-54
2022/07/30 04:08:20;;;;;;;2.60;2.50;;;;;;;16.22;99.01;100323.91;5019866;28;20445;-54
2022/07/30 04:10:50;;;;;;;3.63;3.10;;;;;;;16.04;98.56;100322.19;5023586;28;20966;-53
2022/07/30 04:13:17;;;;;;;2.43;2.20;;;;;;;16.19;98.50;100325.91;5028485;28;20823;-53
2022/07/30 04:16:08;;;;;;;2.10;2.00;;;;;;;16.13;98.67;100326.19;5032772;28;20478;-52
2022/07/30 04:18:58;;;;;;;3.17;3.07;;;;;;;16.28;97.88;100326.25;5018123;28;20471;-52
2022/07/30 04:21:26;;;;;;;2.80;2.70;;;;;;;16.23;98.34;100333.69;5019370;28;20444;-53
2022/07/30 04:23:54;;;;;;;7.57;2.80;;;;;;;16.34;97.91;100333.16;5026896;28;20444;-52
2022/07/30 04:26:32;;;;;;;3.80;3.17;;;;;;;16.42;98.33;100338.09;5019215;28;20450;-52
2022/07/30 04:29:01;;;;;;;3.43;3.23;;;;;;;16.48;98.01;100333.31;5025275;28;20444;-53
2022/07/30 04:31:34;;;;;;;3.27;3.07;;;;;;;16.31;98.35;100336.00;5032313;28;20788;-52
2022/07/30 04:34:07;;;;;;;3.23;3.03;;;;;;;16.39;98.28;100351.69;5019364;28;20468;-52
2022/07/30 04:36:34;;;;;;;8.23;2.80;;;;;;;16.35;99.00;100344.75;5030474;28;20456;-53
2022/07/30 04:39:01;;;;;;;4.80;3.57;;;;;;;16.43;98.59;100347.88;5030942;28;20531;-53
2022/07/30 04:41:28;;;;;;;3.20;2.90;;;;;;;16.45;98.93;100348.69;5021183;28;20448;-51
2022/07/30 04:44:15;;;;;;;3.60;3.40;;;;;;;16.50;99.10;100346.63;5015943;28;20571;-53
2022/07/30 04:46:41;;;;;;;3.23;3.03;;;;;;;16.65;98.88;100353.88;5023887;28;20458;-53
2022/07/30 04:49:09;;;;;;;3.83;3.63;;;;;;;16.75;98.42;100354.31;5027016;28;20469;-52
2022/07/30 04:51:37;;;;;;;7.30;4.20;;;;;;;16.70;99.31;100351.84;5024370;28;20482;-52
2022/07/30 04:54:07;;;;;;;4.00;3.80;;;;;;;17.09;97.47;100359.59;5019195;28;20480;-53
2022/07/30 04:56:45;;;;;;;6.23;4.07;;;;;;;17.89;94.05;100364.09;5012617;28;20498;-53
2022/07/30 04:59:22;;;;;;;3.90;3.60;;;;;;;18.56;90.64;100370.88;5025461;28;20472;-50
2022/07/30 05:01:49;;;;;;;3.17;2.97;;;;;;;19.12;87.47;100374.66;5024744;28;20458;-51
2022/07/30 05:04:17;;;;;;;3.90;3.70;;;;;;;19.59;85.09;100369.91;5016969;28;20556;-53
2022/07/30 05:06:45;;;;;;;3.50;3.30;;;;;;;19.99;82.89;100382.53;5026016;28;20825;-53
2022/07/30 05:09:14;;;;;;;3.23;3.03;;;;;;;20.33;81.85;100373.06;5031748;28;20455;-52
2022/07/30 05:11:41;;;;;;;3.60;3.30;;;;;;;20.64;79.96;100376.38;5018685;28;20452;-53
2022/07/30 05:14:07;;;;;;;5.80;3.90;;;;;;;20.87;78.97;100370.25;5028446;28;20562;-52
2022/07/30 05:16:34;;;;;;;3.40;3.20;;;;;;;20.97;77.83;100371.34;5031465;28;20456;-53
2022/07/30 05:19:00;;;;;;;3.20;3.00;;;;;;;21.09;76.98;100368.72;5022401;28;20492;-51
2022/07/30 05:21:33;;;;;;;11.83;2.57;;;;;;;21.36;76.35;100380.31;5022853;28;20547;-50
2022/07/30 05:23:59;;;;;;;2.20;2.10;;;;;;;21.33;76.13;100375.13;5017906;28;20460;-51
2022/07/30 05:26:26;;;;;;;3.50;3.30;;;;;;;21.43;75.37;100384.31;5028998;28;20448;-53
2022/07/30 05:28:53;;;;;;;3.67;3.30;;;;;;;21.49;74.59;100378.44;5027693;28;20944;-50
2022/07/30 05:31:23;;;;;;;3.20;3.00;;;;;;;21.61;74.72;100383.94;5023747;28;20539;-51
2022/07/30 05:33:50;;;;;;;3.33;3.13;;;;;;;21.76;74.55;100380.13;5027130;28;20836;-51
2022/07/30 05:36:17;;;;;;;3.13;2.83;;;;;;;21.96;74.84;100378.66;5031281;28;20451;-51
2022/07/30 05:38:44;;;;;;;3.65;3.35;;;;;;;22.10;73.84;100384.81;5032962;28;20512;-52
2022/07/30 05:41:10;;;;;;;2.90;2.60;;;;;;;21.97;73.58;100383.97;5028985;28;20449;-50
2022/07/30 05:43:56;;;;;;;4.60;3.70;;;;;;;22.17;73.40;100386.06;5031160;28;20440;-51
2022/07/30 05:46:23;;;;;;;4.30;2.80;;;;;;;22.17;74.17;100388.75;5032923;28;20454;-50
2022/07/30 05:48:49;;;;;;;5.37;3.20;;;;;;;22.36;74.21;100379.25;5033645;28;20478;-51
2022/07/30 05:51:18;;;;;;;3.00;2.80;;;;;;;22.47;73.15;100387.41;5017195;28;20448;-50
2022/07/30 05:53:44;;;;;;;2.50;2.40;;;;;;;22.26;74.62;100398.06;5029906;28;20461;-51
2022/07/30 05:56:11;;;;;;;2.60;2.30;;;;;;;22.49;71.82;100393.59;5024594;28;20444;-52
2022/07/30 05:58:37;;;;;;;1.80;1.70;;;;;;;21.82;74.44;100393.22;5022028;28;20452;-52
2022/07/30 06:01:04;;;;;;;1.97;1.80;;;;;;;21.63;75.72;100395.53;5026634;28;20487;-51
2022/07/30 06:03:30;;;;;;;2.23;2.13;;;;;;;22.05;74.38;100394.19;5028981;28;20451;-52
2022/07/30 06:05:57;;;;;;;4.60;3.23;;;;;;;22.13;74.48;100398.09;5027967;28;20475;-49
2022/07/30 06:08:23;;;;;;;2.23;2.13;;;;;;;22.26;72.53;100403.47;5022610;28;20458;-52
2022/07/30 06:10:50;;;;;;;5.93;2.87;;;;;;;22.57;71.49;100407.41;5023694;28;20462;-52
2022/07/30 06:13:16;;;;;;;2.53;2.43;;;;;;;22.89;70.88;100413.13;5021683;28;20452;-51
2022/07/30 06:15:42;;;;;;;1.93;1.83;;;;;;;23.44;68.17;100416.03;5031457;28;20476;-52
2022/07/30 06:18:09;;;;;;;4.50;2.50;;;;;;;22.77;71.37;100406.75;5034382;28;20469;-52
2022/07/30 06:20:35;;;;;;;3.27;2.97;;;;;;;23.12;70.70;100415.84;5032340;28;20854;-53
2022/07/30 06:23:02;;;;;;;35.63;2.73;;;;;;;23.29;68.64;100410.81;5031994;28;20457;-54
2022/07/30 06:25:28;;;;;;;2.70;2.60;;;;;;;23.45;68.75;100412.31;5025675;28;20495;-52
2022/07/30 06:27:55;;;;;;;3.27;3.00;;;;;;;23.53;69.19;100407.13;5024845;28;20447;-52
2022/07/30 06:30:21;;;;;;;2.87;2.70;;;;;;;23.05;69.56;100410.06;5026485;28;20447;-52
2022/07/30 06:32:56;;;;;;;1.70;1.60;;;;;;;23.38;68.92;100413.78;5029435;28;20536;-53
2022/07/30 06:35:23;;;;;;;2.50;2.40;;;;;;;23.42;68.27;100413.41;5021035;28;20475;-52
2022/07/30 06:37:49;;;;;;;6.60;2.90;;;;;;;23.80;67.13;100404.91;5027837;28;20467;-53
2022/07/30 06:40:32;;;;;;;3.97;3.60;;;;;;;23.78;67.43;100404.19;5028449;28;20533;-52
2022/07/30 06:42:58;;;;;;;3.20;3.00;;;;;;;23.66;68.51;100410.59;5014870;28;20491;-52
2022/07/30 06:45:25;;;;;;;1.93;1.83;;;;;;;23.94;67.23;100415.50;5015136;28;20852;-53
2022/07/30 06:47:56;;;;;;;3.33;3.13;;;;;;;23.64;68.82;100418.00;5033776;28;20453;-53
2022/07/30 06:50:23;;;;;;;7.37;3.03;;;;;;;23.14;70.62;100413.88;5031193;28;20458;-53
2022/07/30 06:52:49;;;;;;;2.40;2.03;;;;;;;23.19;72.40;100422.53;5023020;28;20458;-53
2022/07/30 06:55:16;;;;;;;3.83;2.90;;;;;;;23.10;71.38;100418.69;5021034;28;20480;-54
2022/07/30 06:57:42;;;;;;;2.40;2.30;;;;;;;23.14;69.09;100430.16;5026540;28;20448;-53
2022/07/30 07:00:09;;;;;;;9.53;2.50;;;;;;;23.16;68.52;100426.31;5028140;28;20578;-54
2022/07/30 07:02:36;;;;;;;4.40;3.07;;;;;;;23.50;68.83;100431.78;5023013;28;20456;-54
2022/07/30 07:05:02;;;;;;;6.13;3.00;;;;;;;23.43;68.56;100430.53;5020985;28;20472;-54
2022/07/30 07:07:29;;;;;;;3.37;3.17;;;;;;;23.30;67.15;100428.84;5025979;28;20453;-54
2022/07/30 07:10:09;;;;;;;2.20;2.10;;;;;;;23.37;68.64;100429.19;5018159;28;20447;-53
2022/07/30 07:12:35;;;;;;;3.40;3.20;;;;;;;23.72;67.03;100429.13;5024347;28;20449;-54
2022/07/30 07:15:02;;;;;;;2.57;2.47;;;;;;;23.78;69.00;100431.34;5028694;28;20468;-55
2022/07/30 07:17:29;;;;;;;3.80;1.87;;;;;;;24.15;67.64;100425.59;5031590;28;20851;-53
2022/07/30 07:19:55;;;;;;;3.03;2.80;;;;;;;23.88;66.54;100420.59;5032480;28;20484;-53
2022/07/30 07:22:27;;;;;;;4.53;2.80;;;;;;;23.96;67.21;100423.53;5025964;28;20444;-53
2022/07/30 07:24:53;;;;;;;2.33;2.23;;;;;;;23.84;66.83;100419.09;5024829;28;20476;-54
2022/07/30 07:27:20;;;;;;;10.40;2.67;;;;;;;23.70;67.07;100427.50;5022857;28;20448;-54
2022/07/30 07:29:46;;;;;;;2.47;2.37;;;;;;;23.90;66.61;100419.47;5034940;28;20443;-54
2022/07/30 07:32:30;;;;;;;2.20;2.10;;;;;;;24.04;66.04;100423.75;5021693;28;20559;-54
2022/07/30 07:34:56;;;;;;;4.13;2.50;;;;;;;24.34;64.47;100427.66;5024458;28;20473;-54
2022/07/30 07:37:23;;;;;;;5.43;3.20;;;;;;;24.22;63.96;100427.66;5028769;28;20805;-53
2022/07/30 07:39:49;;;;;;;3.77;3.47;;;;;;;24.66;64.49;100423.06;5025423;28;20621;-55
2022/07/30 07:42:16;;;;;;;2.77;2.57;;;;;;;24.18;63.46;100423.47;5022456;28;20463;-54
2022/07/30 07:44:42;;;;;;;1.93;1.83;;;;;;;24.69;64.07;100421.97;5032094;28;20481;-55
2022/07/30 07:47:09;;;;;;;4.33;2.10;;;;;;;24.61;62.54;100425.34;5031388;28;20456;-55
2022/07/30 07:49:35;;;;;;;10.73;1.80;;;;;;;24.63;62.82;100420.63;5022645;28;20454;-54
2022/07/30 07:52:02;;;;;;;3.20;2.93;;;;;;;24.48;63.68;100420.06;5019816;28;20961;-54
2022/07/30 07:54:28;;;;;;;2.57;2.47;;;;;;;24.69;63.44;100419.25;5025493;28;20487;-55
2022/07/30 07:56:55;;;;;;;1.93;1.83;;;;;;;25.09;62.66;100420.31;5027543;28;20448;-55
2022/07/30 07:59:23;;;;;;;21.27;1.90;;;;;;;25.38;61.94;100422.31;5022256;28;20513;-55
2022/07/30 08:02:02;;;;;;;7.90;2.77;;;;;;;25.84;60.38;100412.78;5023876;28;20480;-55
2022/07/30 08:04:29;;;;;;;3.40;2.97;;;;;;;25.89;59.84;100421.41;5013154;28;20476;-56
2022/07/30 08:06:55;;;;;;;38.17;3.23;;;;;;;26.33;58.69;100413.75;5026323;28;20455;-55
2022/07/30 08:09:22;;;;;;;4.83;2.13;;;;;;;25.94;57.98;100417.28;5024060;28;20458;-54
2022/07/30 08:11:48;;;;;;;2.10;2.00;;;;;;;25.85;58.35;100415.38;5016011;28;20441;-55
2022/07/30 08:14:15;;;;;;;1.80;1.70;;;;;;;26.23;58.08;100413.75;5023956;28;20476;-54
2022/07/30 08:16:41;;;;;;;2.70;2.50;;;;;;;25.80;58.35;100419.53;5020015;28;20455;-55
2022/07/30 08:19:08;;;;;;;11.63;3.20;;;;;;;26.05;57.83;100407.25;5023912;28;20991;-55
2022/07/30 08:21:35;;;;;;;2.63;2.43;;;;;;;25.53;59.06;100410.06;5019570;28;20491;-55
2022/07/30 08:24:01;;;;;;;1.97;1.87;;;;;;;26.26;58.32;100413.44;5020589;28;20476;-55
2022/07/30 08:26:27;;;;;;;3.00;2.57;;;;;;;26.71;56.00;100415.66;5026181;28;20444;-55
2022/07/30 08:28:54;;;;;;;4.07;2.47;;;;;;;26.51;54.14;100420.25;5023913;28;20422;-55
2022/07/30 08:31:20;;;;;;;2.67;1.90;;;;;;;27.00;53.46;100405.59;5032641;28;20450;-55
2022/07/30 08:33:47;;;;;;;1.10;1.00;;;;;;;27.03;54.61;100405.31;5020979;28;20429;-56
2022/07/30 08:36:14;;;;;;;2.40;2.30;;;;;;;27.41;52.77;100409.81;5029397;28;20838;-56
2022/07/30 08:38:40;;;;;;;3.40;1.83;;;;;;;27.42;53.69;100400.63;5032241;28;20937;-53
2022/07/30 08:41:07;;;;;;;3.53;2.47;;;;;;;27.78;52.79;100405.38;5019345;28;20582;-54
2022/07/30 08:43:35;;;;;;;4.83;3.13;;;;;;;26.50;54.77;100404.91;5020057;28;20453;-55
2022/07/30 08:46:06;;;;;;;1.90;1.70;;;;;;;26.57;55.48;100408.75;5028850;28;20475;-56
2022/07/30 08:48:34;;;;;;;3.20;2.90;;;;;;;26.29;55.51;100403.13;5019162;28;20444;-56
2022/07/30 08:51:01;;;;;;;7.73;2.50;;;;;;;26.75;55.44;100406.19;5019384;28;20522;-55
2022/07/30 08:53:28;;;;;;;1.70;1.60;;;;;;;26.55;56.51;100406.19;5018953;28;20457;-55
2022/07/30 08:55:54;;;;;;;7.23;2.50;;;;;;;26.67;54.93;100406.91;5025748;28;21016;-52
2022/07/30 08:58:30;;;;;;;2.10;2.00;;;;;;;26.69;54.91;100402.16;5025866;28;20456;-53
2022/07/30 09:00:57;;;;;;;1.93;1.83;;;;;;;26.31;53.53;100408.41;5020378;28;20491;-52
2022/07/30 09:03:23;;;;;;;2.10;2.00;;;;;;;25.97;54.70;100407.94;5019025;28;20551;-52
2022/07/30 09:05:50;;;;;;;8.33;2.73;;;;;;;25.88;55.95;100403.31;5024326;28;21011;-52
2022/07/30 09:08:16;;;;;;;3.53;2.13;;;;;;;26.26;55.91;100402.53;5025335;28;20451;-52
2022/07/30 09:10:47;;;;;;;3.00;2.80;;;;;;;26.60;53.42;100402.19;5020393;28;20463;-52
2022/07/30 09:13:23;;;;;;;4.57;1.57;;;;;;;26.73;53.64;100400.03;5018904;28;21012;-52
2022/07/30 09:15:51;;;;;;;3.07;2.13;;;;;;;25.94;56.68;100411.81;5023403;28;20473;-51
2022/07/30 09:18:32;;;;;;;2.00;1.87;;;;;;;26.43;55.17;100411.91;5018710;28;20452;-52
2022/07/30 09:21:12;;;;;;;6.47;1.73;;;;;;;26.87;55.33;100407.75;5019220;28;20467;-53
2022/07/30 09:23:38;;;;;;;4.07;2.10;;;;;;;26.07;56.14;100405.25;5020174;28;20925;-52
2022/07/30 09:26:05;;;;;;;2.00;1.90;;;;;;;26.34;55.97;100410.03;5018448;28;20494;-53
2022/07/30 09:28:33;;;;;;;8.40;1.77;;;;;;;26.21;53.50;100400.25;5023603;28;20456;-52
2022/07/30 09:30:59;;;;;;;1.13;1.03;;;;;;;25.96;54.84;100396.19;5027481;28;20462;-52
2022/07/30 09:33:35;;;;;;;2.53;2.40;;;;;;;26.23;51.97;100409.16;5023291;28;20452;-51
2022/07/30 09:36:04;;;;;;;2.60;1.47;;;;;;;26.55;51.05;100408.03;5026727;28;20486;-52
2022/07/30 09:39:03;;;;;;;4.30;1.90;;;;;;;26.72;52.03;100407.31;5031865;28;20791;-52
2022/07/30 09:41:37;;;;;;;3.90;2.60;;;;;;;26.57;50.74;100408.75;4976724;28;20499;-54
2022/07/30 09:44:05;;;;;;;7.90;2.10;;;;;;;26.64;50.20;100403.59;5018452;28;20475;-52
2022/07/30 09:46:46;;;;;;;1.23;0.80;;;;;;;26.46;49.11;100408.94;5030010;28;20539;-53
2022/07/30 09:49:19;;;;;;;2.30;2.07;;;;;;;26.36;48.37;100403.47;5019118;28;20459;-53
2022/07/30 09:51:45;;;;;;;2.07;0.90;;;;;;;26.77;46.72;100407.75;5019977;28;20437;-52
2022/07/30 09:54:23;;;;;;;13.70;1.80;;;;;;;26.95;45.60;100396.09;5020088;28;20981;-53
2022/07/30 09:57:03;;;;;;;1.80;1.07;;;;;;;27.28;45.78;100403.81;5018862;28;20416;-53
2022/07/30 09:59:31;;;;;;;1.00;1.00;;;;;;;27.41;44.07;100393.44;5023173;28;20426;-51
2022/07/30 10:02:00;;;;;;;0.80;0.80;;;;;;;27.30;45.19;100390.88;5026038;28;20567;-51
2022/07/30 10:04:31;;;;;;;1.40;1.30;;;;;;;27.21;44.89;100399.94;5023419;28;20554;-51
2022/07/30 10:07:00;;;;;;;1.50;1.00;;;;;;;27.69;45.18;100412.63;5018914;28;20455;-51
2022/07/30 10:09:31;;;;;;;1.50;1.40;;;;;;;27.92;44.83;100399.38;5020607;28;20416;-51
2022/07/30 10:12:04;;;;;;;3.33;1.10;;;;;;;27.79;43.73;100393.41;5026121;28;20445;-51
2022/07/30 10:14:37;;;;;;;1.03;0.93;;;;;;;27.49;42.61;100397.28;5025370;28;20470;-51
2022/07/30 10:17:09;;;;;;;0.83;0.67;;;;;;;28.09;43.62;100392.22;5016842;28;20519;-51
2022/07/30 10:19:38;;;;;;;5.80;2.40;;;;;;;28.17;43.34;100384.97;5026432;28;20538;-51
2022/07/30 10:22:09;;;;;;;0.80;0.80;;;;;;;27.95;43.98;100378.06;5024065;28;20491;-51
2022/07/30 10:24:37;;;;;;;6.13;1.20;;;;;;;27.95;43.47;100379.94;5022029;28;20468;-51
2022/07/30 10:27:03;;;;;;;3.80;2.10;;;;;;;27.85;42.74;100380.03;5026099;28;20423;-51
2022/07/30 10:29:31;;;;;;;3.03;1.23;;;;;;;28.34;43.87;100377.84;5031629;28;20519;-51
2022/07/30 10:31:59;;;;;;;1.27;0.90;;;;;;;28.49;41.63;100369.94;5034847;28;20490;-51
2022/07/30 10:34:27;;;;;;;3.17;0.80;;;;;;;28.26;40.53;100375.00;5021402;28;20475;-52
2022/07/30 10:37:03;;;;;;;0.90;0.80;;;;;;;28.63;40.21;100369.38;5030789;28;20506;-51
2022/07/30 10:39:46;;;;;;;1.20;0.93;;;;;;;28.19;41.03;100369.28;5028794;28;20841;-51
2022/07/30 10:42:52;;;;;;;1.30;1.20;;;;;;;28.22;39.24;100371.69;5028599;28;20486;-52
2022/07/30 10:45:25;;;;;;;1.10;1.00;;;;;;;28.83;38.83;100370.06;4997697;28;20479;-51
2022/07/30 10:47:53;;;;;;;0.97;0.70;;;;;;;29.10;37.99;100364.47;5030753;28;20451;-51
2022/07/30 10:50:25;;;;;;;1.40;0.60;;;;;;;29.43;36.40;100370.13;5021468;28;20428;-52
2022/07/30 10:52:57;;;;;;;1.20;0.60;;;;;;;29.36;34.68;100371.81;5026659;28;20429;-51
2022/07/30 10:55:28;;;;;;;1.73;0.90;;;;;;;28.74;35.42;100366.38;5027383;28;20516;-52
2022/07/30 10:58:07;;;;;;;3.73;1.10;;;;;;;28.59;36.74;100367.97;5025360;28;20447;-51
2022/07/30 11:00:54;;;;;;;0.70;0.60;;;;;;;28.82;35.40;100368.34;5021033;28;20526;-52
2022/07/30 11:03:23;;;;;;;0.57;0.50;;;;;;;28.66;34.34;100360.00;5008111;28;20502;-52
2022/07/30 11:06:15;;;;;;;0.90;0.83;;;;;;;28.90;35.49;100363.81;5032577;28;20452;-52
2022/07/30 11:08:50;;;;;;;7.30;1.57;;;;;;;28.67;34.67;100354.38;5021036;28;20470;-52
2022/07/30 11:11:19;;;;;;;0.93;0.80;;;;;;;28.68;35.20;100355.25;5029919;28;20447;-51
2022/07/30 11:13:56;;;;;;;2.10;0.70;;;;;;;29.11;35.34;100363.44;5030175;28;20472;-52
2022/07/30 11:16:44;;;;;;;18.47;1.07;;;;;;;28.96;34.62;100365.06;5025359;28;20452;-52
2022/07/30 11:19:17;;;;;;;2.50;2.23;;;;;;;29.03;33.92;100359.78;5010795;28;20449;-52
2022/07/30 11:22:27;;;;;;;0.97;0.90;;;;;;;29.31;35.08;100344.03;5021422;28;20953;-51
2022/07/30 11:24:55;;;;;;;0.80;0.50;;;;;;;29.55;33.13;100355.16;5020530;28;20504;-52
2022/07/30 11:27:51;;;;;;;1.17;0.80;;;;;;;29.37;33.60;100363.44;5023545;28;20986;-51
2022/07/30 11:30:19;;;;;;;1.30;0.83;;;;;;;29.55;33.17;100357.03;5007454;28;20475;-51
2022/07/30 11:32:49;;;;;;;1.30;1.20;;;;;;;29.68;32.48;100354.69;5029891;28;20436;-51
2022/07/30 11:35:20;;;;;;;0.60;0.50;;;;;;;29.56;30.83;100351.38;5024598;28;20450;-51
2022/07/30 11:37:59;;;;;;;1.30;1.20;;;;;;;29.20;31.85;100351.53;5028467;28;20438;-52